createdAt,value
2023-04-11T00:00:43.383Z,5.50
2023-04-11T00:03:12.951Z,6.20
2023-04-11T00:05:41.702Z,4.40
2023-04-11T00:08:16.843Z,4.30
2023-04-11T00:10:46.435Z,5.40
2023-04-11T00:13:15.004Z,5.30
2023-04-11T00:15:45.842Z,5.60
2023-04-11T00:18:15.855Z,5.30
2023-04-11T00:20:44.355Z,3.00
2023-04-11T00:23:13.331Z,3.60
2023-04-11T00:25:42.176Z,4.50
2023-04-11T00:28:10.909Z,4.60
2023-04-11T00:30:39.897Z,4.20
2023-04-11T00:33:09.704Z,4.60
2023-04-11T00:35:40.460Z,3.50
2023-04-11T00:38:09.019Z,3.30
2023-04-11T00:40:37.354Z,3.80
2023-04-11T00:43:25.809Z,4.00
2023-04-11T00:45:54.884Z,5.70
2023-04-11T00:48:25.269Z,5.50
2023-04-11T00:50:57.331Z,3.00
2023-04-11T00:53:26.348Z,12.20
2023-04-11T00:55:55.119Z,24.80
2023-04-11T00:58:23.491Z,30.60
2023-04-11T01:00:53.014Z,50.30
2023-04-11T01:03:23.121Z,19.40
2023-04-11T01:05:54.979Z,6.20
2023-04-11T01:08:25.045Z,4.60
2023-04-11T01:10:54.196Z,6.50
2023-04-11T01:13:22.681Z,6.80
2023-04-11T01:15:53.612Z,6.70
2023-04-11T01:18:23.528Z,6.20
2023-04-11T01:20:51.931Z,3.80
2023-04-11T01:23:23.185Z,3.90
2023-04-11T01:25:51.812Z,4.10
2023-04-11T01:28:20.641Z,5.00
2023-04-11T01:30:50.061Z,5.10
2023-04-11T01:33:19.475Z,4.80
2023-04-11T01:35:48.176Z,3.80
2023-04-11T01:38:16.803Z,4.10
2023-04-11T01:40:45.832Z,4.20
2023-04-11T01:43:14.275Z,4.90
2023-04-11T01:45:44.494Z,5.30
2023-04-11T01:48:14.838Z,4.50
2023-04-11T01:50:43.306Z,3.30
2023-04-11T01:53:13.827Z,2.90
2023-04-11T01:55:42.218Z,4.40
2023-04-11T01:58:10.698Z,4.60
2023-04-11T02:00:39.990Z,4.70
2023-04-11T02:03:08.801Z,5.80
2023-04-11T02:05:38.072Z,3.50
2023-04-11T02:08:07.398Z,3.50
2023-04-11T02:10:36.567Z,5.70
2023-04-11T02:13:05.020Z,6.40
2023-04-11T02:15:42.293Z,7.10
2023-04-11T02:18:13.283Z,7.70
2023-04-11T02:20:42.182Z,7.10
2023-04-11T02:23:16.535Z,4.70
2023-04-11T02:25:45.486Z,5.00
2023-04-11T02:28:14.061Z,6.00
2023-04-11T02:30:42.684Z,6.30
2023-04-11T02:33:14.300Z,6.70
2023-04-11T02:35:43.229Z,8.20
2023-04-11T02:38:11.778Z,7.80
2023-04-11T02:40:41.491Z,5.30
2023-04-11T02:43:11.909Z,6.30
2023-04-11T02:45:41.864Z,7.60
2023-04-11T02:48:10.827Z,8.40
2023-04-11T02:50:44.035Z,14.40
2023-04-11T02:53:13.132Z,20.50
2023-04-11T02:55:49.683Z,20.60
2023-04-11T02:58:20.311Z,9.50
2023-04-11T03:00:49.752Z,15.60
2023-04-11T03:03:26.587Z,18.50
2023-04-11T03:05:57.212Z,21.20
2023-04-11T03:08:26.412Z,79.40
2023-04-11T03:10:56.787Z,55.00
2023-04-11T03:13:26.544Z,27.00
2023-04-11T03:15:55.466Z,29.10
2023-04-11T03:18:27.303Z,45.60
2023-04-11T03:20:56.403Z,38.60
2023-04-11T03:23:27.943Z,26.90
2023-04-11T03:25:57.039Z,18.60
2023-04-11T03:28:25.525Z,16.40
2023-04-11T03:30:54.711Z,10.10
2023-04-11T03:33:26.510Z,13.50
2023-04-11T03:35:55.207Z,33.80
2023-04-11T03:38:25.088Z,44.20
2023-04-11T03:40:53.517Z,57.00
2023-04-11T03:43:24.826Z,42.10
2023-04-11T03:45:53.950Z,41.50
2023-04-11T03:48:33.868Z,25.90
2023-04-11T03:51:07.365Z,51.20
2023-04-11T03:53:44.124Z,84.10
2023-04-11T03:56:24.525Z,56.30
2023-04-11T03:58:54.016Z,55.20
2023-04-11T04:01:23.728Z,50.80
2023-04-11T04:03:53.872Z,42.00
2023-04-11T04:06:23.021Z,74.20
2023-04-11T04:08:53.268Z,59.90
2023-04-11T04:11:22.236Z,51.30
2023-04-11T04:13:51.122Z,32.80
2023-04-11T04:16:21.279Z,39.30
2023-04-11T04:18:53.408Z,35.50
2023-04-11T04:21:26.935Z,37.40
2023-04-11T04:24:03.714Z,23.80
2023-04-11T04:26:58.093Z,37.20
2023-04-11T04:29:53.634Z,56.40
2023-04-11T04:32:31.031Z,45.10
2023-04-11T04:35:11.861Z,26.40
2023-04-11T04:37:45.890Z,18.40
2023-04-11T04:40:42.289Z,21.30
2023-04-11T04:43:18.608Z,26.60
2023-04-11T04:45:55.114Z,13.60
2023-04-11T04:48:27.491Z,19.70
2023-04-11T04:50:56.486Z,11.80
2023-04-11T04:53:30.780Z,8.20
2023-04-11T04:56:02.576Z,9.00
2023-04-11T04:58:32.987Z,11.50
2023-04-11T05:01:11.570Z,13.00
2023-04-11T05:03:41.725Z,14.90
2023-04-11T05:06:13.588Z,14.30
2023-04-11T05:11:25.193Z,16.20
2023-04-11T05:13:53.816Z,17.50
2023-04-11T05:16:24.151Z,10.50
2023-04-11T05:18:53.195Z,11.50
2023-04-11T05:21:22.527Z,13.90
2023-04-11T05:23:58.204Z,21.60
2023-04-11T05:26:27.770Z,15.70
2023-04-11T05:28:56.260Z,16.70
2023-04-11T05:31:29.127Z,15.20
2023-04-11T05:33:58.700Z,13.80
2023-04-11T05:36:28.581Z,10.90
2023-04-11T05:38:58.472Z,10.20
2023-04-11T05:41:30.208Z,11.00
2023-04-11T05:43:58.692Z,9.20
2023-04-11T05:46:29.635Z,10.60
2023-04-11T05:48:58.522Z,13.20
2023-04-11T05:51:27.314Z,10.50
2023-04-11T05:53:56.152Z,8.50
2023-04-11T05:56:24.580Z,8.10
2023-04-11T05:58:52.880Z,7.20
2023-04-11T06:01:22.390Z,10.20
2023-04-11T06:03:50.872Z,7.80
2023-04-11T06:06:21.189Z,7.70
2023-04-11T06:08:50.049Z,7.40
2023-04-11T06:11:18.437Z,7.70
2023-04-11T06:13:50.626Z,7.80
2023-04-11T06:16:19.310Z,7.80
2023-04-11T06:18:47.883Z,8.10
2023-04-11T06:21:17.994Z,7.80
2023-04-11T06:23:46.771Z,8.70
2023-04-11T06:26:15.911Z,7.20
2023-04-11T06:28:45.068Z,8.00
2023-04-11T06:31:13.815Z,8.90
2023-04-11T06:33:43.208Z,7.90
2023-04-11T06:36:12.397Z,7.40
2023-04-11T06:38:40.740Z,7.60
2023-04-11T06:41:10.461Z,7.10
2023-04-11T06:43:39.029Z,7.30
2023-04-11T06:46:13.974Z,7.40
2023-04-11T06:48:42.672Z,7.30
2023-04-11T06:51:11.337Z,6.80
2023-04-11T06:53:45.448Z,7.00
2023-04-11T06:56:14.135Z,6.90
2023-04-11T06:58:45.583Z,6.90
2023-04-11T07:01:14.882Z,6.10
2023-04-11T07:03:47.543Z,5.10
2023-04-11T07:06:20.047Z,6.90
2023-04-11T07:08:52.732Z,5.10
2023-04-11T07:11:21.040Z,6.50
2023-04-11T07:13:56.033Z,5.30
2023-04-11T07:16:25.777Z,5.40
2023-04-11T07:18:55.069Z,5.90
2023-04-11T07:21:23.545Z,5.00
2023-04-11T07:23:53.889Z,4.50
2023-04-11T07:26:23.890Z,4.70
2023-04-11T07:28:53.895Z,4.70
2023-04-11T07:31:22.973Z,6.20
2023-04-11T07:33:51.702Z,5.50
2023-04-11T07:36:20.145Z,4.90
2023-04-11T07:38:48.939Z,3.70
2023-04-11T07:41:17.642Z,4.80
2023-04-11T07:43:47.943Z,4.90
2023-04-11T07:46:16.536Z,5.90
2023-04-11T07:48:45.125Z,4.50
2023-04-11T07:51:13.668Z,4.20
2023-04-11T07:53:42.134Z,4.90
2023-04-11T07:56:10.977Z,5.60
2023-04-11T07:58:39.434Z,4.90
2023-04-11T08:01:14.641Z,4.40
2023-04-11T08:03:43.990Z,3.30
2023-04-11T08:06:12.562Z,4.50
2023-04-11T08:08:42.831Z,4.80
2023-04-11T08:18:48.303Z,5.70
2023-04-11T08:21:16.760Z,3.70
2023-04-11T08:23:47.531Z,4.30
2023-04-11T08:26:17.231Z,4.70
2023-04-11T08:28:45.428Z,5.40
2023-04-11T08:31:15.704Z,4.30
2023-04-11T08:33:44.296Z,4.00
2023-04-11T08:36:12.920Z,4.90
2023-04-11T08:38:42.016Z,3.60
2023-04-11T08:41:11.064Z,6.00
2023-04-11T08:43:44.466Z,5.10
2023-04-11T08:46:13.897Z,4.40
2023-04-11T08:48:44.611Z,4.90
2023-04-11T08:51:14.925Z,4.70
2023-04-11T08:53:43.508Z,4.70
2023-04-11T08:56:17.142Z,5.00
2023-04-11T09:01:33.702Z,4.50
2023-04-11T09:04:05.615Z,5.10
2023-04-11T09:06:37.325Z,3.70
2023-04-11T09:09:05.625Z,3.80
2023-04-11T09:11:54.339Z,4.00
2023-04-11T09:14:29.479Z,5.50
2023-04-11T09:16:59.240Z,4.70
2023-04-11T09:19:29.648Z,3.40
2023-04-11T09:22:01.791Z,5.00
2023-04-11T09:24:32.047Z,4.80
2023-04-11T09:27:10.764Z,4.80
2023-04-11T09:29:42.416Z,3.80
2023-04-11T09:32:32.674Z,5.70
2023-04-11T09:35:18.682Z,3.50
2023-04-11T09:37:55.490Z,3.90
2023-04-11T09:40:31.567Z,3.80
2023-04-11T09:43:01.673Z,4.40
2023-04-11T09:45:33.892Z,3.10
2023-04-11T09:48:07.173Z,4.10
2023-04-11T09:50:38.875Z,4.40
2023-04-11T09:53:07.176Z,5.00
2023-04-11T09:55:38.292Z,5.10
2023-04-11T09:58:06.853Z,4.40
2023-04-11T10:00:35.387Z,3.80
2023-04-11T10:03:04.633Z,4.80
2023-04-11T10:05:36.228Z,4.20
2023-04-11T10:08:11.603Z,3.50
2023-04-11T10:10:41.089Z,5.30
2023-04-11T10:13:41.997Z,4.90
2023-04-11T10:16:11.378Z,4.30
2023-04-11T10:18:54.733Z,3.80
2023-04-11T10:21:33.374Z,3.60
2023-04-11T10:24:09.286Z,4.70
2023-04-11T10:26:58.330Z,4.90
2023-04-11T10:29:30.273Z,3.70
2023-04-11T10:32:17.806Z,3.60
2023-04-11T10:34:52.304Z,6.00
2023-04-11T10:37:32.886Z,7.30
2023-04-11T10:40:12.498Z,6.30
2023-04-11T10:42:44.902Z,4.20
2023-04-11T10:45:31.067Z,4.00
2023-04-11T10:48:07.742Z,4.10
2023-04-11T10:50:40.904Z,4.40
2023-04-11T10:53:34.006Z,4.30
2023-04-11T10:56:02.488Z,4.20
2023-04-11T10:58:39.718Z,4.00
2023-04-11T11:03:52.601Z,5.30
2023-04-11T11:06:21.517Z,5.30
2023-04-11T11:08:50.163Z,3.30
2023-04-11T11:11:21.216Z,5.10
2023-04-11T11:13:56.460Z,5.00
2023-04-11T11:16:25.915Z,4.40
2023-04-11T11:19:06.615Z,5.30
2023-04-11T11:21:35.192Z,4.90
2023-04-11T11:24:03.907Z,4.20
2023-04-11T11:26:42.601Z,5.10
2023-04-11T11:29:11.593Z,4.90
2023-04-11T11:31:42.164Z,3.90
2023-04-11T11:34:22.753Z,5.10
2023-04-11T11:36:53.737Z,6.20
2023-04-11T11:39:23.299Z,5.30
2023-04-11T11:41:53.976Z,4.50
2023-04-11T11:44:26.574Z,5.70
2023-04-11T11:47:05.609Z,4.50
2023-04-11T11:49:47.818Z,4.80
2023-04-11T11:52:36.992Z,4.80
2023-04-11T11:55:17.919Z,4.90
2023-04-11T11:57:49.886Z,3.80
2023-04-11T12:00:25.323Z,4.80
2023-04-11T12:02:57.526Z,4.10
2023-04-11T12:05:30.816Z,2.10
2023-04-11T12:08:00.811Z,3.90
2023-04-11T12:10:48.745Z,4.10
2023-04-11T12:13:20.080Z,5.20
2023-04-11T12:15:53.273Z,4.00
2023-04-11T12:18:26.513Z,3.60
2023-04-11T12:20:55.108Z,3.10
2023-04-11T12:23:23.847Z,2.80
2023-04-11T12:25:52.347Z,3.70
2023-04-11T12:28:24.101Z,3.10
2023-04-11T12:30:52.724Z,4.00
2023-04-11T12:33:22.301Z,3.10
2023-04-11T12:35:51.382Z,2.70
2023-04-11T12:38:23.748Z,4.10
2023-04-11T12:41:08.689Z,4.20
2023-04-11T12:43:42.975Z,3.70
2023-04-11T12:46:11.804Z,3.00
2023-04-11T12:48:40.399Z,3.40
2023-04-11T12:51:09.805Z,4.20
2023-04-11T12:53:38.308Z,3.30
2023-04-11T12:56:07.686Z,4.00
2023-04-11T12:58:37.918Z,3.90
2023-04-11T13:01:07.722Z,3.70
2023-04-11T13:03:38.483Z,4.10
2023-04-11T13:06:07.960Z,3.30
2023-04-11T13:08:38.109Z,3.20
2023-04-11T13:11:07.279Z,3.20
2023-04-11T13:13:36.870Z,3.30
2023-04-11T13:16:07.463Z,3.90
2023-04-11T13:18:35.894Z,3.70
2023-04-11T13:21:05.915Z,3.10
2023-04-11T13:23:35.626Z,4.00
2023-04-11T13:26:07.880Z,4.50
2023-04-11T13:28:39.243Z,3.70
2023-04-11T13:31:11.074Z,3.90
2023-04-11T13:33:40.979Z,3.30
2023-04-11T13:36:10.530Z,3.10
2023-04-11T13:38:42.900Z,3.90
2023-04-11T13:41:14.994Z,3.10
2023-04-11T13:43:43.561Z,3.10
2023-04-11T13:46:12.852Z,3.20
2023-04-11T13:48:41.533Z,3.00
2023-04-11T13:51:10.752Z,3.50
2023-04-11T13:53:39.319Z,3.30
2023-04-11T13:56:08.651Z,3.50
2023-04-11T13:58:38.527Z,3.10
2023-04-11T14:01:08.382Z,3.70
2023-04-11T14:03:38.038Z,2.80
2023-04-11T14:06:09.038Z,3.30
2023-04-11T14:08:37.354Z,3.00
2023-04-11T14:11:06.460Z,5.60
2023-04-11T14:13:36.784Z,5.10
2023-04-11T14:16:09.244Z,3.30
2023-04-11T14:18:37.952Z,4.40
2023-04-11T14:21:08.470Z,8.00
2023-04-11T14:23:37.313Z,4.80
2023-04-11T14:26:07.110Z,4.70
2023-04-11T14:28:37.914Z,8.80
2023-04-11T14:31:06.864Z,6.60
2023-04-11T14:33:41.022Z,4.20
2023-04-11T14:36:09.904Z,3.80
2023-04-11T14:38:38.418Z,3.50
2023-04-11T14:41:07.376Z,3.70
2023-04-11T14:43:36.268Z,3.50
2023-04-11T14:46:07.182Z,2.90
2023-04-11T14:48:36.405Z,3.80
2023-04-11T14:51:05.787Z,3.10
2023-04-11T14:53:34.855Z,3.40
2023-04-11T14:56:06.910Z,3.40
2023-04-11T14:58:36.681Z,3.40
2023-04-11T15:01:05.278Z,3.50
2023-04-11T15:03:35.113Z,4.00
2023-04-11T15:06:11.337Z,5.30
2023-04-11T15:08:41.874Z,3.30
2023-04-11T15:11:10.669Z,3.50
2023-04-11T15:13:48.453Z,2.50
2023-04-11T15:16:19.339Z,2.30
2023-04-11T15:18:49.307Z,3.20
2023-04-11T15:21:27.626Z,3.20
2023-04-11T15:23:56.756Z,2.80
2023-04-11T15:26:26.014Z,2.80
2023-04-11T15:28:56.676Z,2.60
2023-04-11T15:31:26.432Z,3.00
2023-04-11T15:33:57.048Z,3.10
2023-04-11T15:36:47.275Z,4.20
2023-04-11T15:39:16.268Z,5.50
2023-04-11T15:41:44.711Z,4.60
2023-04-11T15:44:13.334Z,5.10
2023-04-11T15:46:41.982Z,4.90
2023-04-11T15:49:16.952Z,5.30
2023-04-11T15:51:46.686Z,4.40
2023-04-11T15:54:15.050Z,5.00
2023-04-11T15:56:43.535Z,4.10
2023-04-11T15:59:13.130Z,4.20
2023-04-11T16:01:46.379Z,5.30
2023-04-11T16:04:16.541Z,5.30
2023-04-11T16:06:45.537Z,3.90
2023-04-11T16:09:14.072Z,3.40
2023-04-11T16:11:44.054Z,3.00
2023-04-11T16:14:12.992Z,3.00
2023-04-11T16:16:47.150Z,3.10
2023-04-11T16:19:16.590Z,3.00
2023-04-11T16:21:45.647Z,3.30
2023-04-11T16:24:21.697Z,3.30
2023-04-11T16:26:50.632Z,3.10
2023-04-11T16:29:19.077Z,3.70
2023-04-11T16:31:48.790Z,5.20
2023-04-11T16:34:18.081Z,20.60
2023-04-11T16:36:48.610Z,21.40
2023-04-11T16:39:17.000Z,17.50
2023-04-11T16:41:45.856Z,21.90
2023-04-11T16:44:16.616Z,22.60
2023-04-11T16:46:45.283Z,27.00
2023-04-11T16:49:16.847Z,28.00
2023-04-11T16:51:45.128Z,52.90
2023-04-11T16:54:14.025Z,81.40
2023-04-11T16:56:42.411Z,57.70
2023-04-11T16:59:12.522Z,64.90
2023-04-11T17:01:42.176Z,57.50
2023-04-11T17:04:13.252Z,50.10
2023-04-11T17:06:41.850Z,46.10
2023-04-11T17:09:11.151Z,39.60
2023-04-11T17:11:39.749Z,36.30
2023-04-11T17:14:10.365Z,34.70
2023-04-11T17:16:40.621Z,28.40
2023-04-11T17:19:10.716Z,26.30
2023-04-11T17:21:46.631Z,22.80
2023-04-11T17:24:16.167Z,18.80
2023-04-11T17:26:44.573Z,15.40
2023-04-11T17:29:14.375Z,20.60
2023-04-11T17:31:42.892Z,23.10
2023-04-11T17:34:12.668Z,15.70
2023-04-11T17:36:43.233Z,14.20
2023-04-11T17:39:17.671Z,12.80
2023-04-11T17:41:46.698Z,13.20
2023-04-11T17:44:16.305Z,13.20
2023-04-11T17:46:44.848Z,19.10
2023-04-11T17:49:13.472Z,21.50
2023-04-11T17:51:48.632Z,22.30
2023-04-11T17:54:21.718Z,25.80
2023-04-11T17:56:50.894Z,27.60
2023-04-11T17:59:21.647Z,23.20
2023-04-11T18:01:53.660Z,28.00
2023-04-11T18:04:24.070Z,47.00
2023-04-11T18:06:52.613Z,137.00
2023-04-11T18:09:26.815Z,93.40
2023-04-11T18:11:55.414Z,95.80
2023-04-11T18:14:25.448Z,111.00
2023-04-11T18:16:55.330Z,97.20
2023-04-11T18:19:24.117Z,87.10
2023-04-11T18:21:53.753Z,81.40
2023-04-11T18:24:25.692Z,80.70
2023-04-11T18:26:54.388Z,88.20
2023-04-11T18:29:24.297Z,70.60
2023-04-11T18:31:53.963Z,63.30
2023-04-11T18:34:22.830Z,72.70
2023-04-11T18:36:54.455Z,72.90
2023-04-11T18:39:23.848Z,73.80
2023-04-11T18:41:52.148Z,61.60
2023-04-11T18:44:21.633Z,55.30
2023-04-11T18:46:51.848Z,53.10
2023-04-11T18:49:22.352Z,38.90
2023-04-11T18:51:52.926Z,37.00
2023-04-11T18:54:23.651Z,40.30
2023-04-11T18:56:54.132Z,36.80
2023-04-11T18:59:28.684Z,38.00
2023-04-11T19:01:59.125Z,35.20
2023-04-11T19:04:30.176Z,29.90
2023-04-11T19:06:59.294Z,30.40
2023-04-11T19:09:28.353Z,26.50
2023-04-11T19:11:57.017Z,23.10
2023-04-11T19:14:26.025Z,19.10
2023-04-11T19:16:55.650Z,20.40
2023-04-11T19:19:24.317Z,20.70
2023-04-11T19:21:53.020Z,14.70
2023-04-11T19:24:21.994Z,12.30
2023-04-11T19:26:50.580Z,11.90
2023-04-11T19:29:20.600Z,13.00
2023-04-11T19:31:49.133Z,10.80
2023-04-11T19:34:17.803Z,10.90
2023-04-11T19:36:46.447Z,11.10
2023-04-11T19:39:15.652Z,11.00
2023-04-11T19:41:45.725Z,10.90
2023-04-11T19:44:14.863Z,9.10
2023-04-11T19:54:19.847Z,7.70
2023-04-11T19:56:49.562Z,7.20
2023-04-11T19:59:18.135Z,7.00
2023-04-11T20:01:47.156Z,7.30
2023-04-11T20:04:17.868Z,6.50
2023-04-11T20:06:47.268Z,6.80
2023-04-11T20:09:16.260Z,6.60
2023-04-11T20:11:47.949Z,6.10
2023-04-11T20:14:16.916Z,5.10
2023-04-11T20:16:45.700Z,5.50
2023-04-11T20:19:14.690Z,6.00
2023-04-11T20:21:43.286Z,5.80
2023-04-11T20:24:12.513Z,4.40
2023-04-11T20:26:41.426Z,4.60
2023-04-11T20:29:09.953Z,5.40
2023-04-11T20:31:38.983Z,5.70
2023-04-11T20:34:08.080Z,6.60
2023-04-11T20:36:39.385Z,7.90
2023-04-11T20:39:08.507Z,9.10
2023-04-11T20:41:40.779Z,8.30
2023-04-11T20:44:09.126Z,7.50
2023-04-11T20:46:40.006Z,10.70
2023-04-11T20:49:08.951Z,20.70
2023-04-11T20:51:37.739Z,34.10
2023-04-11T20:54:06.650Z,52.90
2023-04-11T20:56:36.441Z,65.30
2023-04-11T20:59:10.250Z,53.40
2023-04-11T21:01:38.906Z,53.20
2023-04-11T21:04:10.134Z,63.50
2023-04-11T21:06:45.226Z,30.60
2023-04-11T21:09:13.634Z,43.70
2023-04-11T21:11:42.283Z,33.40
2023-04-11T21:14:26.990Z,53.70
2023-04-11T21:16:56.041Z,58.60
2023-04-11T21:19:25.170Z,55.10
2023-04-11T21:21:54.956Z,66.20
2023-04-11T21:24:23.739Z,46.30
2023-04-11T21:26:52.250Z,58.10
2023-04-11T21:29:28.555Z,29.50
2023-04-11T21:31:56.854Z,57.90
2023-04-11T21:34:25.520Z,61.20
2023-04-11T21:36:54.542Z,70.40
2023-04-11T21:39:25.175Z,54.00
2023-04-11T21:41:53.811Z,41.40
2023-04-11T21:44:22.539Z,54.20
2023-04-11T21:46:52.055Z,48.60
2023-04-11T21:49:21.135Z,49.80
2023-04-11T21:51:53.412Z,52.40
2023-04-11T21:54:21.992Z,44.20
2023-04-11T21:56:51.118Z,51.40
2023-04-11T21:59:25.006Z,46.90
2023-04-11T22:01:54.064Z,31.80
2023-04-11T22:04:23.302Z,32.90
2023-04-11T22:06:54.429Z,22.40
2023-04-11T22:09:23.228Z,22.20
2023-04-11T22:11:52.347Z,20.20
2023-04-11T22:14:28.933Z,27.50
2023-04-11T22:17:00.969Z,28.30
2023-04-11T22:19:29.692Z,22.00
2023-04-11T22:22:03.572Z,30.10
2023-04-11T22:24:33.453Z,14.10
2023-04-11T22:27:04.392Z,15.40
2023-04-11T22:29:34.863Z,25.40
2023-04-11T22:32:04.299Z,28.70
2023-04-11T22:34:32.806Z,112.50
2023-04-11T22:37:02.255Z,81.40
2023-04-11T22:39:30.998Z,18.90
2023-04-11T22:42:00.302Z,10.50
2023-04-11T22:44:28.924Z,9.70
2023-04-11T22:47:04.061Z,7.50
2023-04-11T22:49:33.418Z,17.80
2023-04-11T22:52:02.447Z,12.00
2023-04-11T22:54:35.399Z,11.90
2023-04-11T22:57:03.981Z,9.70
2023-04-11T22:59:33.987Z,5.40
2023-04-11T23:02:02.662Z,6.90
2023-04-11T23:04:31.985Z,7.40
2023-04-11T23:07:05.149Z,6.70
2023-04-11T23:09:33.452Z,7.50
2023-04-11T23:12:03.156Z,8.10
2023-04-11T23:14:32.414Z,10.60
2023-04-11T23:17:01.229Z,10.10
2023-04-11T23:19:32.401Z,8.30
2023-04-11T23:22:02.841Z,7.00
2023-04-11T23:24:32.034Z,6.20
2023-04-11T23:27:00.593Z,5.10
2023-04-11T23:29:30.945Z,4.90
2023-04-11T23:31:59.295Z,5.90
2023-04-11T23:34:30.949Z,3.40
2023-04-11T23:37:01.012Z,3.70
2023-04-11T23:39:29.656Z,4.20
2023-04-11T23:41:59.161Z,4.20
2023-04-11T23:44:27.964Z,4.40
2023-04-11T23:47:02.281Z,4.40
2023-04-11T23:49:31.031Z,4.80
2023-04-11T23:51:59.469Z,4.50
2023-04-11T23:54:30.416Z,5.00
2023-04-11T23:56:59.305Z,4.90
2023-04-11T23:59:27.853Z,5.20
